sensor_id;sensor_type;location;lat;lon;timestamp;temperature;humidity
40804;DHT22;26515;50.926;5.364;2022-07-23T00:05:17;19.80;99.90
40804;DHT22;26515;50.926;5.364;2022-07-23T00:07:44;19.70;99.90
40804;DHT22;26515;50.926;5.364;2022-07-23T00:10:18;19.60;99.90
40804;DHT22;26515;50.926;5.364;2022-07-23T00:12:57;19.60;99.90
40804;DHT22;26515;50.926;5.364;2022-07-23T00:15:24;19.50;99.90
40804;DHT22;26515;50.926;5.364;2022-07-23T00:17:57;19.50;99.90
40804;DHT22;26515;50.926;5.364;2022-07-23T00:20:24;19.50;99.90
40804;DHT22;26515;50.926;5.364;2022-07-23T00:22:52;19.50;99.90
40804;DHT22;26515;50.926;5.364;2022-07-23T00:25:20;19.50;99.90
40804;DHT22;26515;50.926;5.364;2022-07-23T00:27:47;19.60;99.90
40804;DHT22;26515;50.926;5.364;2022-07-23T00:30:25;19.60;99.90
40804;DHT22;26515;50.926;5.364;2022-07-23T00:33:02;19.50;99.90
40804;DHT22;26515;50.926;5.364;2022-07-23T00:35:36;19.50;99.90
40804;DHT22;26515;50.926;5.364;2022-07-23T00:38:04;19.40;99.90
40804;DHT22;26515;50.926;5.364;2022-07-23T00:40:33;19.40;99.90
40804;DHT22;26515;50.926;5.364;2022-07-23T00:43:00;19.30;99.90
40804;DHT22;26515;50.926;5.364;2022-07-23T00:45:27;19.30;99.90
40804;DHT22;26515;50.926;5.364;2022-07-23T00:48:01;19.30;99.90
40804;DHT22;26515;50.926;5.364;2022-07-23T00:56:03;19.10;99.90
40804;DHT22;26515;50.926;5.364;2022-07-23T00:58:30;19.10;99.90
40804;DHT22;26515;50.926;5.364;2022-07-23T01:00:58;19.10;99.90
40804;DHT22;26515;50.926;5.364;2022-07-23T01:05:56;19.10;99.90
40804;DHT22;26515;50.926;5.364;2022-07-23T01:11:15;19.00;99.90
40804;DHT22;26515;50.926;5.364;2022-07-23T01:13:42;19.00;99.90
40804;DHT22;26515;50.926;5.364;2022-07-23T01:16:07;18.90;99.90
40804;DHT22;26515;50.926;5.364;2022-07-23T01:18:46;18.80;99.90
40804;DHT22;26515;50.926;5.364;2022-07-23T01:21:12;18.80;99.90
40804;DHT22;26515;50.926;5.364;2022-07-23T01:23:40;18.80;99.90
40804;DHT22;26515;50.926;5.364;2022-07-23T01:26:17;18.70;99.90
40804;DHT22;26515;50.926;5.364;2022-07-23T01:28:45;18.70;99.90
40804;DHT22;26515;50.926;5.364;2022-07-23T01:31:13;18.70;99.90
40804;DHT22;26515;50.926;5.364;2022-07-23T01:33:41;18.60;99.90
40804;DHT22;26515;50.926;5.364;2022-07-23T01:36:17;18.60;99.90
40804;DHT22;26515;50.926;5.364;2022-07-23T01:38:43;18.60;99.90
40804;DHT22;26515;50.926;5.364;2022-07-23T01:43:58;18.60;99.90
40804;DHT22;26515;50.926;5.364;2022-07-23T01:46:25;18.60;99.90
40804;DHT22;26515;50.926;5.364;2022-07-23T01:48:53;18.60;99.90
40804;DHT22;26515;50.926;5.364;2022-07-23T01:51:19;18.50;99.90
40804;DHT22;26515;50.926;5.364;2022-07-23T01:53:46;18.60;99.90
40804;DHT22;26515;50.926;5.364;2022-07-23T01:56:12;18.50;99.90
40804;DHT22;26515;50.926;5.364;2022-07-23T01:58:41;18.50;99.90
40804;DHT22;26515;50.926;5.364;2022-07-23T02:01:08;18.50;99.90
40804;DHT22;26515;50.926;5.364;2022-07-23T02:03:36;18.50;99.90
40804;DHT22;26515;50.926;5.364;2022-07-23T02:08:35;18.40;99.90
40804;DHT22;26515;50.926;5.364;2022-07-23T02:11:01;18.40;99.90
40804;DHT22;26515;50.926;5.364;2022-07-23T02:18:30;18.40;99.90
40804;DHT22;26515;50.926;5.364;2022-07-23T02:20:56;18.30;99.90
40804;DHT22;26515;50.926;5.364;2022-07-23T02:26:08;18.20;99.90
40804;DHT22;26515;50.926;5.364;2022-07-23T02:28:43;18.20;99.90
40804;DHT22;26515;50.926;5.364;2022-07-23T02:34:01;18.20;99.90
40804;DHT22;26515;50.926;5.364;2022-07-23T02:36:30;18.20;99.90
40804;DHT22;26515;50.926;5.364;2022-07-23T02:38:56;18.20;99.90
40804;DHT22;26515;50.926;5.364;2022-07-23T02:43:56;18.10;99.90
40804;DHT22;26515;50.926;5.364;2022-07-23T02:46:23;18.00;99.90
40804;DHT22;26515;50.926;5.364;2022-07-23T02:48:49;18.10;99.90
40804;DHT22;26515;50.926;5.364;2022-07-23T02:51:19;18.00;99.90
40804;DHT22;26515;50.926;5.364;2022-07-23T02:53:45;18.00;99.90
40804;DHT22;26515;50.926;5.364;2022-07-23T02:56:13;18.10;99.90
40804;DHT22;26515;50.926;5.364;2022-07-23T02:58:41;18.00;99.90
40804;DHT22;26515;50.926;5.364;2022-07-23T03:01:09;18.00;99.90
40804;DHT22;26515;50.926;5.364;2022-07-23T03:06:24;17.90;99.90
40804;DHT22;26515;50.926;5.364;2022-07-23T03:08:50;17.90;99.90
40804;DHT22;26515;50.926;5.364;2022-07-23T03:11:20;17.80;99.90
40804;DHT22;26515;50.926;5.364;2022-07-23T03:13:56;17.70;99.90
40804;DHT22;26515;50.926;5.364;2022-07-23T03:16:22;17.70;99.90
40804;DHT22;26515;50.926;5.364;2022-07-23T03:18:48;17.70;99.90
40804;DHT22;26515;50.926;5.364;2022-07-23T03:21:19;17.70;99.90
40804;DHT22;26515;50.926;5.364;2022-07-23T03:23:44;17.70;99.90
40804;DHT22;26515;50.926;5.364;2022-07-23T03:26:13;17.70;99.90
40804;DHT22;26515;50.926;5.364;2022-07-23T03:28:40;17.70;99.90
40804;DHT22;26515;50.926;5.364;2022-07-23T03:31:07;17.70;99.90
40804;DHT22;26515;50.926;5.364;2022-07-23T03:36:21;17.70;99.90
40804;DHT22;26515;50.926;5.364;2022-07-23T03:38:58;17.70;99.90
40804;DHT22;26515;50.926;5.364;2022-07-23T03:41:23;17.70;99.90
40804;DHT22;26515;50.926;5.364;2022-07-23T03:43:50;17.60;99.90
40804;DHT22;26515;50.926;5.364;2022-07-23T03:46:28;17.60;99.90
40804;DHT22;26515;50.926;5.364;2022-07-23T03:49:06;17.50;99.90
40804;DHT22;26515;50.926;5.364;2022-07-23T03:51:34;17.40;99.90
40804;DHT22;26515;50.926;5.364;2022-07-23T03:54:07;17.50;99.90
40804;DHT22;26515;50.926;5.364;2022-07-23T03:56:33;17.40;99.90
40804;DHT22;26515;50.926;5.364;2022-07-23T03:58:58;17.40;99.90
40804;DHT22;26515;50.926;5.364;2022-07-23T04:01:25;17.50;99.90
40804;DHT22;26515;50.926;5.364;2022-07-23T04:04:02;17.40;99.90
40804;DHT22;26515;50.926;5.364;2022-07-23T04:06:32;17.50;99.90
40804;DHT22;26515;50.926;5.364;2022-07-23T04:09:14;17.50;99.90
40804;DHT22;26515;50.926;5.364;2022-07-23T04:11:39;17.50;99.90
40804;DHT22;26515;50.926;5.364;2022-07-23T04:14:07;17.50;99.90
40804;DHT22;26515;50.926;5.364;2022-07-23T04:16:33;17.50;99.90
40804;DHT22;26515;50.926;5.364;2022-07-23T04:18:59;17.60;99.90
40804;DHT22;26515;50.926;5.364;2022-07-23T04:21:29;17.60;99.90
40804;DHT22;26515;50.926;5.364;2022-07-23T04:24:05;17.60;99.90
40804;DHT22;26515;50.926;5.364;2022-07-23T04:29:11;17.60;99.90
40804;DHT22;26515;50.926;5.364;2022-07-23T04:31:37;17.50;99.90
40804;DHT22;26515;50.926;5.364;2022-07-23T04:34:07;17.50;99.90
40804;DHT22;26515;50.926;5.364;2022-07-23T04:36:34;17.50;99.90
40804;DHT22;26515;50.926;5.364;2022-07-23T04:39:03;17.50;99.90
40804;DHT22;26515;50.926;5.364;2022-07-23T04:41:28;17.60;99.90
40804;DHT22;26515;50.926;5.364;2022-07-23T04:43:55;17.60;99.90
40804;DHT22;26515;50.926;5.364;2022-07-23T04:46:28;17.70;99.90
40804;DHT22;26515;50.926;5.364;2022-07-23T04:48:59;17.70;99.90
40804;DHT22;26515;50.926;5.364;2022-07-23T04:56:35;17.70;99.90
40804;DHT22;26515;50.926;5.364;2022-07-23T05:01:33;17.60;99.90
40804;DHT22;26515;50.926;5.364;2022-07-23T05:03:59;17.70;99.90
40804;DHT22;26515;50.926;5.364;2022-07-23T05:06:25;17.90;99.90
40804;DHT22;26515;50.926;5.364;2022-07-23T05:08:51;18.00;99.90
40804;DHT22;26515;50.926;5.364;2022-07-23T05:11:25;18.00;99.90
40804;DHT22;26515;50.926;5.364;2022-07-23T05:13:53;17.90;99.90
40804;DHT22;26515;50.926;5.364;2022-07-23T05:19:10;18.00;99.90
40804;DHT22;26515;50.926;5.364;2022-07-23T05:21:46;17.80;99.90
40804;DHT22;26515;50.926;5.364;2022-07-23T05:24:12;17.90;99.90
40804;DHT22;26515;50.926;5.364;2022-07-23T05:26:40;18.00;99.90
40804;DHT22;26515;50.926;5.364;2022-07-23T05:29:09;18.10;99.90
40804;DHT22;26515;50.926;5.364;2022-07-23T05:31:34;18.20;99.90
40804;DHT22;26515;50.926;5.364;2022-07-23T05:34:05;18.50;99.90
40804;DHT22;26515;50.926;5.364;2022-07-23T05:39:18;20.00;99.90
40804;DHT22;26515;50.926;5.364;2022-07-23T05:41:57;20.90;99.90
40804;DHT22;26515;50.926;5.364;2022-07-23T05:44:24;21.60;99.90
40804;DHT22;26515;50.926;5.364;2022-07-23T05:46:53;22.30;99.90
40804;DHT22;26515;50.926;5.364;2022-07-23T05:49:27;23.00;99.20
40804;DHT22;26515;50.926;5.364;2022-07-23T05:52:05;23.60;98.40
40804;DHT22;26515;50.926;5.364;2022-07-23T05:54:45;24.20;96.60
40804;DHT22;26515;50.926;5.364;2022-07-23T05:57:14;24.90;95.70
40804;DHT22;26515;50.926;5.364;2022-07-23T05:59:41;25.30;94.30
40804;DHT22;26515;50.926;5.364;2022-07-23T06:02:10;25.80;93.80
40804;DHT22;26515;50.926;5.364;2022-07-23T06:04:37;26.50;93.10
40804;DHT22;26515;50.926;5.364;2022-07-23T06:07:06;26.90;90.80
40804;DHT22;26515;50.926;5.364;2022-07-23T06:09:40;27.00;90.50
40804;DHT22;26515;50.926;5.364;2022-07-23T06:12:07;27.30;90.20
40804;DHT22;26515;50.926;5.364;2022-07-23T06:14:33;27.80;89.10
40804;DHT22;26515;50.926;5.364;2022-07-23T06:17:01;28.30;87.10
40804;DHT22;26515;50.926;5.364;2022-07-23T06:19:27;28.90;81.90
40804;DHT22;26515;50.926;5.364;2022-07-23T06:21:54;29.20;81.30
40804;DHT22;26515;50.926;5.364;2022-07-23T06:24:20;29.50;78.90
40804;DHT22;26515;50.926;5.364;2022-07-23T06:26:55;29.70;81.20
40804;DHT22;26515;50.926;5.364;2022-07-23T06:31:53;30.70;77.50
40804;DHT22;26515;50.926;5.364;2022-07-23T06:34:26;31.10;76.90
40804;DHT22;26515;50.926;5.364;2022-07-23T06:37:01;31.40;72.40
40804;DHT22;26515;50.926;5.364;2022-07-23T06:39:28;31.40;72.10
40804;DHT22;26515;50.926;5.364;2022-07-23T06:41:54;31.70;70.00
40804;DHT22;26515;50.926;5.364;2022-07-23T06:44:19;31.60;72.20
40804;DHT22;26515;50.926;5.364;2022-07-23T06:46:47;32.20;72.70
40804;DHT22;26515;50.926;5.364;2022-07-23T06:51:53;32.20;71.00
40804;DHT22;26515;50.926;5.364;2022-07-23T06:56:54;32.90;68.50
40804;DHT22;26515;50.926;5.364;2022-07-23T06:59:21;33.20;68.10
40804;DHT22;26515;50.926;5.364;2022-07-23T07:04:40;34.30;66.50
40804;DHT22;26515;50.926;5.364;2022-07-23T07:07:12;34.80;64.60
40804;DHT22;26515;50.926;5.364;2022-07-23T07:09:38;34.50;63.20
40804;DHT22;26515;50.926;5.364;2022-07-23T07:12:05;33.90;62.50
40804;DHT22;26515;50.926;5.364;2022-07-23T07:14:38;33.50;62.80
40804;DHT22;26515;50.926;5.364;2022-07-23T07:17:04;33.60;66.60
40804;DHT22;26515;50.926;5.364;2022-07-23T07:19:36;34.30;65.10
40804;DHT22;26515;50.926;5.364;2022-07-23T07:27:44;35.50;58.80
40804;DHT22;26515;50.926;5.364;2022-07-23T07:30:10;36.00;58.80
40804;DHT22;26515;50.926;5.364;2022-07-23T07:32:44;36.10;59.20
40804;DHT22;26515;50.926;5.364;2022-07-23T07:35:11;36.00;58.30
40804;DHT22;26515;50.926;5.364;2022-07-23T07:37:47;35.90;57.90
40804;DHT22;26515;50.926;5.364;2022-07-23T07:40:13;36.20;58.60
40804;DHT22;26515;50.926;5.364;2022-07-23T07:42:48;36.50;57.60
40804;DHT22;26515;50.926;5.364;2022-07-23T07:45:17;36.50;56.30
40804;DHT22;26515;50.926;5.364;2022-07-23T07:50:21;37.50;56.50
40804;DHT22;26515;50.926;5.364;2022-07-23T07:52:48;37.30;56.10
40804;DHT22;26515;50.926;5.364;2022-07-23T07:55:13;37.70;56.10
40804;DHT22;26515;50.926;5.364;2022-07-23T07:57:46;37.60;55.90
40804;DHT22;26515;50.926;5.364;2022-07-23T08:00:13;37.40;55.70
40804;DHT22;26515;50.926;5.364;2022-07-23T08:02:43;37.60;53.10
40804;DHT22;26515;50.926;5.364;2022-07-23T08:05:10;38.10;54.40
40804;DHT22;26515;50.926;5.364;2022-07-23T08:07:36;38.60;53.60
40804;DHT22;26515;50.926;5.364;2022-07-23T08:15:19;38.50;52.40
40804;DHT22;26515;50.926;5.364;2022-07-23T08:17:49;38.60;52.20
40804;DHT22;26515;50.926;5.364;2022-07-23T08:20:28;38.90;52.40
40804;DHT22;26515;50.926;5.364;2022-07-23T08:22:56;38.90;52.40
40804;DHT22;26515;50.926;5.364;2022-07-23T08:25:24;39.00;50.10
40804;DHT22;26515;50.926;5.364;2022-07-23T08:27:52;39.00;49.70
40804;DHT22;26515;50.926;5.364;2022-07-23T08:30:21;39.20;50.00
40804;DHT22;26515;50.926;5.364;2022-07-23T08:35:44;39.90;50.20
40804;DHT22;26515;50.926;5.364;2022-07-23T08:38:23;39.80;49.40
40804;DHT22;26515;50.926;5.364;2022-07-23T08:40:53;40.00;49.20
40804;DHT22;26515;50.926;5.364;2022-07-23T08:43:31;39.80;50.00
40804;DHT22;26515;50.926;5.364;2022-07-23T08:46:05;40.30;48.90
40804;DHT22;26515;50.926;5.364;2022-07-23T08:48:32;40.40;47.70
40804;DHT22;26515;50.926;5.364;2022-07-23T08:51:02;40.90;48.40
40804;DHT22;26515;50.926;5.364;2022-07-23T08:53:29;41.20;47.70
40804;DHT22;26515;50.926;5.364;2022-07-23T08:55:58;41.20;48.20
40804;DHT22;26515;50.926;5.364;2022-07-23T08:58:25;41.40;46.90
40804;DHT22;26515;50.926;5.364;2022-07-23T09:00:51;41.40;47.50
40804;DHT22;26515;50.926;5.364;2022-07-23T09:08:52;41.40;49.00
40804;DHT22;26515;50.926;5.364;2022-07-23T09:11:18;41.80;46.70
40804;DHT22;26515;50.926;5.364;2022-07-23T09:13:54;42.20;47.30
40804;DHT22;26515;50.926;5.364;2022-07-23T09:16:37;42.00;46.40
40804;DHT22;26515;50.926;5.364;2022-07-23T09:19:04;41.40;46.80
40804;DHT22;26515;50.926;5.364;2022-07-23T09:21:36;42.10;45.90
40804;DHT22;26515;50.926;5.364;2022-07-23T09:24:12;42.40;47.00
40804;DHT22;26515;50.926;5.364;2022-07-23T09:26:49;42.90;42.90
40804;DHT22;26515;50.926;5.364;2022-07-23T09:29:31;42.50;44.60
40804;DHT22;26515;50.926;5.364;2022-07-23T09:32:13;42.50;46.00
40804;DHT22;26515;50.926;5.364;2022-07-23T09:37:18;43.20;45.50
40804;DHT22;26515;50.926;5.364;2022-07-23T09:39:44;42.80;44.30
40804;DHT22;26515;50.926;5.364;2022-07-23T09:42:16;42.60;44.60
40804;DHT22;26515;50.926;5.364;2022-07-23T09:44:45;41.90;45.80
40804;DHT22;26515;50.926;5.364;2022-07-23T09:47:20;42.30;45.80
40804;DHT22;26515;50.926;5.364;2022-07-23T09:49:59;42.50;43.10
40804;DHT22;26515;50.926;5.364;2022-07-23T09:54:58;42.60;43.30
40804;DHT22;26515;50.926;5.364;2022-07-23T09:57:34;42.80;42.90
40804;DHT22;26515;50.926;5.364;2022-07-23T10:00:09;42.90;43.40
40804;DHT22;26515;50.926;5.364;2022-07-23T10:05:09;43.10;42.50
40804;DHT22;26515;50.926;5.364;2022-07-23T10:07:39;42.90;42.50
40804;DHT22;26515;50.926;5.364;2022-07-23T10:12:34;42.10;44.80
40804;DHT22;26515;50.926;5.364;2022-07-23T10:15:06;41.60;43.60
40804;DHT22;26515;50.926;5.364;2022-07-23T10:17:33;41.20;43.70
40804;DHT22;26515;50.926;5.364;2022-07-23T10:20:01;41.40;44.80
40804;DHT22;26515;50.926;5.364;2022-07-23T10:22:29;41.80;43.00
40804;DHT22;26515;50.926;5.364;2022-07-23T10:33:42;41.00;44.60
40804;DHT22;26515;50.926;5.364;2022-07-23T10:36:28;41.60;43.50
40804;DHT22;26515;50.926;5.364;2022-07-23T10:39:00;41.00;43.40
40804;DHT22;26515;50.926;5.364;2022-07-23T10:41:36;40.80;44.10
40804;DHT22;26515;50.926;5.364;2022-07-23T10:44:16;40.40;44.60
40804;DHT22;26515;50.926;5.364;2022-07-23T10:52:38;40.50;44.10
40804;DHT22;26515;50.926;5.364;2022-07-23T10:57:32;40.60;44.20
40804;DHT22;26515;50.926;5.364;2022-07-23T11:00:12;41.10;44.50
40804;DHT22;26515;50.926;5.364;2022-07-23T11:02:41;41.70;43.20
40804;DHT22;26515;50.926;5.364;2022-07-23T11:05:12;41.50;42.70
40804;DHT22;26515;50.926;5.364;2022-07-23T11:24:05;41.00;43.80
40804;DHT22;26515;50.926;5.364;2022-07-23T11:26:44;41.40;42.50
40804;DHT22;26515;50.926;5.364;2022-07-23T11:32:05;41.30;43.40
40804;DHT22;26515;50.926;5.364;2022-07-23T11:36:58;41.00;42.90
40804;DHT22;26515;50.926;5.364;2022-07-23T11:39:25;40.80;42.60
40804;DHT22;26515;50.926;5.364;2022-07-23T11:41:52;41.20;44.80
40804;DHT22;26515;50.926;5.364;2022-07-23T11:44:29;41.40;40.80
40804;DHT22;26515;50.926;5.364;2022-07-23T11:46:56;41.20;40.70
40804;DHT22;26515;50.926;5.364;2022-07-23T11:49:32;40.90;42.20
40804;DHT22;26515;50.926;5.364;2022-07-23T11:52:15;40.40;44.50
40804;DHT22;26515;50.926;5.364;2022-07-23T11:57:29;40.00;42.60
40804;DHT22;26515;50.926;5.364;2022-07-23T12:00:05;39.80;43.00
40804;DHT22;26515;50.926;5.364;2022-07-23T12:02:34;39.50;44.90
40804;DHT22;26515;50.926;5.364;2022-07-23T12:05:00;39.70;44.30
40804;DHT22;26515;50.926;5.364;2022-07-23T12:07:36;39.80;44.10
40804;DHT22;26515;50.926;5.364;2022-07-23T12:15:39;38.50;41.80
40804;DHT22;26515;50.926;5.364;2022-07-23T12:18:13;38.40;43.80
40804;DHT22;26515;50.926;5.364;2022-07-23T12:25:45;37.70;44.90
40804;DHT22;26515;50.926;5.364;2022-07-23T12:28:22;37.00;45.10
40804;DHT22;26515;50.926;5.364;2022-07-23T12:30:53;36.10;45.30
40804;DHT22;26515;50.926;5.364;2022-07-23T12:35:55;34.80;45.70
40804;DHT22;26515;50.926;5.364;2022-07-23T12:40:57;33.50;48.60
40804;DHT22;26515;50.926;5.364;2022-07-23T12:43:32;33.40;50.40
40804;DHT22;26515;50.926;5.364;2022-07-23T12:46:06;33.10;48.00
40804;DHT22;26515;50.926;5.364;2022-07-23T12:51:20;32.80;48.00
40804;DHT22;26515;50.926;5.364;2022-07-23T12:53:48;32.30;50.40
40804;DHT22;26515;50.926;5.364;2022-07-23T12:56:15;32.40;49.10
40804;DHT22;26515;50.926;5.364;2022-07-23T12:58:51;32.30;49.40
40804;DHT22;26515;50.926;5.364;2022-07-23T13:01:22;32.20;49.60
40804;DHT22;26515;50.926;5.364;2022-07-23T13:03:58;32.00;50.30
40804;DHT22;26515;50.926;5.364;2022-07-23T13:06:25;31.80;50.30
40804;DHT22;26515;50.926;5.364;2022-07-23T13:08:52;31.90;52.70
40804;DHT22;26515;50.926;5.364;2022-07-23T13:11:19;31.90;48.90
40804;DHT22;26515;50.926;5.364;2022-07-23T13:13:46;31.80;50.70
40804;DHT22;26515;50.926;5.364;2022-07-23T13:16:16;32.00;51.30
40804;DHT22;26515;50.926;5.364;2022-07-23T13:18:41;31.90;51.30
40804;DHT22;26515;50.926;5.364;2022-07-23T13:21:08;31.90;51.30
40804;DHT22;26515;50.926;5.364;2022-07-23T13:23:36;31.90;52.20
40804;DHT22;26515;50.926;5.364;2022-07-23T13:26:02;31.70;51.60
40804;DHT22;26515;50.926;5.364;2022-07-23T13:31:35;31.50;49.10
40804;DHT22;26515;50.926;5.364;2022-07-23T13:34:07;31.20;49.80
40804;DHT22;26515;50.926;5.364;2022-07-23T13:36:38;30.90;49.80
40804;DHT22;26515;50.926;5.364;2022-07-23T13:39:06;31.00;51.30
40804;DHT22;26515;50.926;5.364;2022-07-23T13:44:12;31.20;53.60
40804;DHT22;26515;50.926;5.364;2022-07-23T13:46:45;31.40;51.40
40804;DHT22;26515;50.926;5.364;2022-07-23T13:49:20;31.60;51.60
40804;DHT22;26515;50.926;5.364;2022-07-23T13:51:48;31.50;50.60
40804;DHT22;26515;50.926;5.364;2022-07-23T13:54:20;31.60;54.00
40804;DHT22;26515;50.926;5.364;2022-07-23T13:56:49;31.70;50.00
40804;DHT22;26515;50.926;5.364;2022-07-23T13:59:16;31.70;51.00
40804;DHT22;26515;50.926;5.364;2022-07-23T14:01:41;31.60;50.70
40804;DHT22;26515;50.926;5.364;2022-07-23T14:04:09;31.60;52.60
40804;DHT22;26515;50.926;5.364;2022-07-23T14:06:35;31.70;52.20
40804;DHT22;26515;50.926;5.364;2022-07-23T14:09:02;31.70;50.10
40804;DHT22;26515;50.926;5.364;2022-07-23T14:11:29;31.70;52.40
40804;DHT22;26515;50.926;5.364;2022-07-23T14:13:56;31.60;50.30
40804;DHT22;26515;50.926;5.364;2022-07-23T14:16:25;31.60;51.60
40804;DHT22;26515;50.926;5.364;2022-07-23T14:19:00;31.70;50.20
40804;DHT22;26515;50.926;5.364;2022-07-23T14:21:27;31.70;51.10
40804;DHT22;26515;50.926;5.364;2022-07-23T14:24:04;31.70;50.70
40804;DHT22;26515;50.926;5.364;2022-07-23T14:26:33;31.70;51.40
40804;DHT22;26515;50.926;5.364;2022-07-23T14:29:02;31.70;51.30
40804;DHT22;26515;50.926;5.364;2022-07-23T14:31:33;31.80;51.20
40804;DHT22;26515;50.926;5.364;2022-07-23T14:36:28;31.80;50.10
40804;DHT22;26515;50.926;5.364;2022-07-23T15:15:08;30.70;52.00
40804;DHT22;26515;50.926;5.364;2022-07-23T15:17:38;30.70;53.00
40804;DHT22;26515;50.926;5.364;2022-07-23T15:20:14;30.60;52.90
40804;DHT22;26515;50.926;5.364;2022-07-23T15:22:42;30.70;53.10
40804;DHT22;26515;50.926;5.364;2022-07-23T15:25:08;30.80;53.80
40804;DHT22;26515;50.926;5.364;2022-07-23T15:27:34;30.80;52.70
40804;DHT22;26515;50.926;5.364;2022-07-23T15:32:29;30.70;52.00
40804;DHT22;26515;50.926;5.364;2022-07-23T15:34:56;30.70;53.10
40804;DHT22;26515;50.926;5.364;2022-07-23T15:37:22;30.70;52.40
40804;DHT22;26515;50.926;5.364;2022-07-23T15:39:50;30.80;53.20
40804;DHT22;26515;50.926;5.364;2022-07-23T15:42:17;30.80;52.20
40804;DHT22;26515;50.926;5.364;2022-07-23T15:44:44;30.80;52.30
40804;DHT22;26515;50.926;5.364;2022-07-23T15:47:13;30.90;53.20
40804;DHT22;26515;50.926;5.364;2022-07-23T15:49:42;30.90;52.70
40804;DHT22;26515;50.926;5.364;2022-07-23T15:52:09;30.50;53.40
40804;DHT22;26515;50.926;5.364;2022-07-23T15:54:35;30.50;52.80
40804;DHT22;26515;50.926;5.364;2022-07-23T15:57:02;30.60;56.20
40804;DHT22;26515;50.926;5.364;2022-07-23T15:59:28;30.80;52.80
40804;DHT22;26515;50.926;5.364;2022-07-23T16:02:01;30.90;53.50
40804;DHT22;26515;50.926;5.364;2022-07-23T16:04:27;30.90;53.40
40804;DHT22;26515;50.926;5.364;2022-07-23T16:06:54;31.00;53.30
40804;DHT22;26515;50.926;5.364;2022-07-23T16:09:20;31.10;52.40
40804;DHT22;26515;50.926;5.364;2022-07-23T16:11:47;31.20;52.90
40804;DHT22;26515;50.926;5.364;2022-07-23T16:14:13;31.30;52.70
40804;DHT22;26515;50.926;5.364;2022-07-23T16:16:41;31.20;53.60
40804;DHT22;26515;50.926;5.364;2022-07-23T16:19:06;30.70;53.50
40804;DHT22;26515;50.926;5.364;2022-07-23T16:21:40;30.50;53.20
40804;DHT22;26515;50.926;5.364;2022-07-23T16:24:06;30.40;52.70
40804;DHT22;26515;50.926;5.364;2022-07-23T16:26:32;30.50;52.50
40804;DHT22;26515;50.926;5.364;2022-07-23T16:28:57;30.30;52.60
40804;DHT22;26515;50.926;5.364;2022-07-23T16:36:31;30.30;53.20
40804;DHT22;26515;50.926;5.364;2022-07-23T16:41:29;30.30;53.20
40804;DHT22;26515;50.926;5.364;2022-07-23T16:46:42;30.20;54.00
40804;DHT22;26515;50.926;5.364;2022-07-23T16:49:08;30.20;54.10
40804;DHT22;26515;50.926;5.364;2022-07-23T16:51:35;30.10;54.80
40804;DHT22;26515;50.926;5.364;2022-07-23T16:59:10;29.70;55.00
40804;DHT22;26515;50.926;5.364;2022-07-23T17:01:37;29.80;54.10
40804;DHT22;26515;50.926;5.364;2022-07-23T17:04:11;29.80;54.50
40804;DHT22;26515;50.926;5.364;2022-07-23T17:06:42;29.70;54.90
40804;DHT22;26515;50.926;5.364;2022-07-23T17:09:08;29.70;56.20
40804;DHT22;26515;50.926;5.364;2022-07-23T17:11:41;29.60;57.30
40804;DHT22;26515;50.926;5.364;2022-07-23T17:14:07;29.70;53.50
40804;DHT22;26515;50.926;5.364;2022-07-23T17:16:36;29.70;54.90
40804;DHT22;26515;50.926;5.364;2022-07-23T17:21:33;29.70;53.90
40804;DHT22;26515;50.926;5.364;2022-07-23T17:24:03;29.70;56.20
40804;DHT22;26515;50.926;5.364;2022-07-23T17:29:22;29.60;55.00
40804;DHT22;26515;50.926;5.364;2022-07-23T17:31:48;29.60;54.60
40804;DHT22;26515;50.926;5.364;2022-07-23T17:34:19;29.50;57.10
40804;DHT22;26515;50.926;5.364;2022-07-23T17:36:45;29.60;58.90
40804;DHT22;26515;50.926;5.364;2022-07-23T17:39:12;29.60;58.20
40804;DHT22;26515;50.926;5.364;2022-07-23T17:41:42;29.60;55.80
40804;DHT22;26515;50.926;5.364;2022-07-23T17:44:16;29.50;55.20
40804;DHT22;26515;50.926;5.364;2022-07-23T17:46:42;29.50;56.40
40804;DHT22;26515;50.926;5.364;2022-07-23T17:49:07;29.40;56.70
40804;DHT22;26515;50.926;5.364;2022-07-23T17:51:35;29.40;55.70
40804;DHT22;26515;50.926;5.364;2022-07-23T17:59:13;29.00;59.70
40804;DHT22;26515;50.926;5.364;2022-07-23T18:01:40;29.00;60.20
40804;DHT22;26515;50.926;5.364;2022-07-23T18:04:22;29.00;60.50
40804;DHT22;26515;50.926;5.364;2022-07-23T18:06:48;29.00;56.90
40804;DHT22;26515;50.926;5.364;2022-07-23T18:09:15;28.90;56.90
40804;DHT22;26515;50.926;5.364;2022-07-23T18:14:20;28.80;59.00
40804;DHT22;26515;50.926;5.364;2022-07-23T18:16:52;28.70;57.30
40804;DHT22;26515;50.926;5.364;2022-07-23T18:19:19;28.60;58.90
40804;DHT22;26515;50.926;5.364;2022-07-23T18:21:46;28.60;59.00
40804;DHT22;26515;50.926;5.364;2022-07-23T18:24:23;28.50;59.20
40804;DHT22;26515;50.926;5.364;2022-07-23T18:26:55;28.40;59.30
40804;DHT22;26515;50.926;5.364;2022-07-23T18:29:22;28.40;60.00
40804;DHT22;26515;50.926;5.364;2022-07-23T18:31:48;28.30;61.80
40804;DHT22;26515;50.926;5.364;2022-07-23T18:34:15;28.20;61.30
40804;DHT22;26515;50.926;5.364;2022-07-23T18:36:40;28.10;60.20
40804;DHT22;26515;50.926;5.364;2022-07-23T18:39:11;28.00;61.70
40804;DHT22;26515;50.926;5.364;2022-07-23T18:41:37;28.00;61.10
40804;DHT22;26515;50.926;5.364;2022-07-23T18:44:03;27.80;62.10
40804;DHT22;26515;50.926;5.364;2022-07-23T18:46:46;27.80;63.90
40804;DHT22;26515;50.926;5.364;2022-07-23T18:49:12;27.70;64.00
40804;DHT22;26515;50.926;5.364;2022-07-23T18:51:43;27.60;64.00
40804;DHT22;26515;50.926;5.364;2022-07-23T18:54:12;27.60;63.60
40804;DHT22;26515;50.926;5.364;2022-07-23T18:56:54;27.50;64.60
40804;DHT22;26515;50.926;5.364;2022-07-23T18:59:22;27.50;63.30
40804;DHT22;26515;50.926;5.364;2022-07-23T19:04:45;27.40;65.10
40804;DHT22;26515;50.926;5.364;2022-07-23T19:07:12;27.40;65.00
40804;DHT22;26515;50.926;5.364;2022-07-23T19:09:42;27.30;64.80
40804;DHT22;26515;50.926;5.364;2022-07-23T19:12:17;27.20;65.70
40804;DHT22;26515;50.926;5.364;2022-07-23T19:14:45;27.10;65.90
40804;DHT22;26515;50.926;5.364;2022-07-23T19:17:11;27.00;66.80
40804;DHT22;26515;50.926;5.364;2022-07-23T19:19:38;26.90;66.70
40804;DHT22;26515;50.926;5.364;2022-07-23T19:22:03;26.80;67.60
40804;DHT22;26515;50.926;5.364;2022-07-23T19:24:32;26.70;67.90
40804;DHT22;26515;50.926;5.364;2022-07-23T19:27:03;26.70;68.70
40804;DHT22;26515;50.926;5.364;2022-07-23T19:29:30;26.50;69.90
40804;DHT22;26515;50.926;5.364;2022-07-23T19:32:04;26.40;69.50
40804;DHT22;26515;50.926;5.364;2022-07-23T19:34:40;26.40;70.20
40804;DHT22;26515;50.926;5.364;2022-07-23T19:37:06;26.30;70.40
40804;DHT22;26515;50.926;5.364;2022-07-23T19:39:53;26.30;70.50